createdAt,value
2023-05-18T00:01:06.933Z,22.10
2023-05-18T00:03:37.294Z,28.13
2023-05-18T00:06:08.898Z,15.40
2023-05-18T00:08:39.289Z,20.07
2023-05-18T00:11:08.724Z,18.33
2023-05-18T00:13:37.652Z,23.37
2023-05-18T00:16:08.733Z,20.03
2023-05-18T00:18:37.992Z,19.03
2023-05-18T00:21:09.759Z,18.20
2023-05-18T00:23:40.167Z,18.27
2023-05-18T00:26:09.305Z,14.93
2023-05-18T00:28:38.200Z,19.70
2023-05-18T00:31:08.217Z,19.23
2023-05-18T00:33:37.256Z,20.47
2023-05-18T00:36:08.798Z,18.07
2023-05-18T00:38:37.970Z,17.40
2023-05-18T00:41:07.509Z,17.57
2023-05-18T00:43:36.910Z,16.13
2023-05-18T00:46:06.105Z,20.00
2023-05-18T00:48:36.385Z,22.23
2023-05-18T00:51:06.680Z,22.10
2023-05-18T00:53:38.704Z,17.83
2023-05-18T00:56:09.795Z,17.43
2023-05-18T00:59:05.168Z,18.43
2023-05-18T01:01:36.767Z,14.87
2023-05-18T01:04:06.144Z,26.93
2023-05-18T01:06:36.622Z,18.33
2023-05-18T01:09:10.860Z,15.30
2023-05-18T01:11:53.899Z,14.30
2023-05-18T01:14:30.852Z,16.77
2023-05-18T01:17:12.213Z,11.97
2023-05-18T01:20:08.304Z,13.63
2023-05-18T01:22:52.384Z,13.57
2023-05-18T01:25:35.178Z,11.90
2023-05-18T01:28:11.052Z,11.30
2023-05-18T01:30:43.995Z,16.70
2023-05-18T01:33:14.965Z,15.07
2023-05-18T01:35:48.885Z,10.97
2023-05-18T01:38:25.090Z,17.87
2023-05-18T01:41:03.085Z,14.23
2023-05-18T01:43:36.738Z,11.73
2023-05-18T01:46:11.922Z,12.77
2023-05-18T01:48:48.593Z,12.43
2023-05-18T01:51:24.965Z,11.43
2023-05-18T01:54:01.281Z,9.20
2023-05-18T01:56:34.012Z,18.27
2023-05-18T01:59:05.509Z,15.00
2023-05-18T02:01:34.864Z,11.33
2023-05-18T02:04:04.497Z,13.80
2023-05-18T02:06:33.930Z,16.50
2023-05-18T02:09:02.535Z,12.73
2023-05-18T02:11:31.996Z,12.10
2023-05-18T02:14:01.166Z,13.20
2023-05-18T02:16:31.888Z,15.63
2023-05-18T02:19:01.389Z,14.87
2023-05-18T02:21:35.036Z,14.97
2023-05-18T02:24:06.712Z,18.83
2023-05-18T02:26:37.993Z,14.43
2023-05-18T02:29:09.763Z,9.63
2023-05-18T02:31:40.790Z,12.53
2023-05-18T02:34:12.259Z,14.77
2023-05-18T02:36:43.453Z,12.03
2023-05-18T02:39:12.698Z,10.23
2023-05-18T02:41:41.853Z,11.60
2023-05-18T02:44:12.724Z,13.50
2023-05-18T02:46:43.470Z,13.20
2023-05-18T02:49:12.463Z,14.43
2023-05-18T02:51:42.606Z,9.20
2023-05-18T02:54:12.862Z,17.47
2023-05-18T02:56:43.543Z,14.37
2023-05-18T02:59:24.814Z,9.67
2023-05-18T03:01:56.188Z,15.67
2023-05-18T03:04:26.325Z,12.90
2023-05-18T03:06:58.722Z,19.27
2023-05-18T03:09:41.837Z,8.23
2023-05-18T03:12:11.820Z,13.57
2023-05-18T03:14:40.972Z,10.40
2023-05-18T03:17:11.614Z,11.77
2023-05-18T03:19:41.236Z,9.33
2023-05-18T03:22:10.922Z,13.00
2023-05-18T03:24:41.944Z,9.67
2023-05-18T03:27:16.820Z,12.37
2023-05-18T03:29:47.332Z,8.40
2023-05-18T03:32:25.063Z,11.70
2023-05-18T03:34:54.906Z,11.23
2023-05-18T03:37:24.316Z,7.17
2023-05-18T03:39:53.718Z,7.90
2023-05-18T03:42:23.605Z,11.63
2023-05-18T03:44:53.657Z,9.10
2023-05-18T03:47:24.718Z,8.60
2023-05-18T03:49:53.705Z,9.97
2023-05-18T03:52:24.346Z,7.00
2023-05-18T03:54:54.204Z,7.50
2023-05-18T03:57:23.363Z,10.27
2023-05-18T03:59:55.144Z,14.57
2023-05-18T04:02:26.397Z,6.33
2023-05-18T04:04:58.416Z,12.97
2023-05-18T04:07:30.944Z,11.70
2023-05-18T04:09:59.824Z,12.80
2023-05-18T04:12:29.556Z,13.07
2023-05-18T04:14:59.175Z,16.07
2023-05-18T04:17:30.345Z,10.83
2023-05-18T04:20:02.383Z,13.53
2023-05-18T04:22:31.698Z,17.03
2023-05-18T04:25:02.413Z,7.83
2023-05-18T04:27:32.057Z,12.40
2023-05-18T04:30:00.972Z,12.60
2023-05-18T04:32:36.873Z,14.07
2023-05-18T04:35:07.797Z,14.47
2023-05-18T04:37:40.761Z,13.30
2023-05-18T04:40:14.756Z,19.37
2023-05-18T04:42:45.919Z,9.33
2023-05-18T04:45:18.214Z,11.63
2023-05-18T04:47:54.222Z,10.80
2023-05-18T04:50:25.442Z,12.13
2023-05-18T04:52:58.479Z,11.43
2023-05-18T04:55:29.582Z,10.13
2023-05-18T04:58:03.353Z,11.97
2023-05-18T05:00:33.279Z,7.37
2023-05-18T05:03:05.237Z,10.93
2023-05-18T05:05:36.163Z,11.53
2023-05-18T05:08:07.369Z,9.53
2023-05-18T05:10:37.111Z,10.77
2023-05-18T05:13:06.838Z,13.10
2023-05-18T05:15:39.315Z,10.10
2023-05-18T05:18:11.029Z,8.47
2023-05-18T05:20:40.646Z,9.30
2023-05-18T05:23:10.696Z,11.93
2023-05-18T05:25:43.029Z,11.17
2023-05-18T05:28:12.285Z,10.10
2023-05-18T05:30:41.284Z,11.03
2023-05-18T05:33:12.158Z,9.40
2023-05-18T05:35:41.143Z,8.13
2023-05-18T05:38:10.540Z,7.20
2023-05-18T05:40:39.901Z,10.60
2023-05-18T05:43:08.754Z,14.37
2023-05-18T05:45:39.189Z,10.77
2023-05-18T05:48:13.862Z,7.70
2023-05-18T05:50:43.363Z,12.70
2023-05-18T05:53:12.353Z,9.27
2023-05-18T05:55:42.856Z,8.07
2023-05-18T05:58:15.498Z,10.63
2023-05-18T06:00:49.813Z,5.90
2023-05-18T06:03:20.544Z,11.20
2023-05-18T06:05:53.180Z,9.97
2023-05-18T06:08:24.739Z,10.20
2023-05-18T06:10:56.029Z,12.53
2023-05-18T06:13:26.315Z,9.07
2023-05-18T06:15:59.408Z,7.53
2023-05-18T06:18:31.202Z,6.00
2023-05-18T06:21:04.236Z,14.70
2023-05-18T06:23:33.818Z,6.10
2023-05-18T06:26:13.379Z,8.83
2023-05-18T06:29:03.272Z,11.73
2023-05-18T06:31:39.055Z,12.10
2023-05-18T06:34:33.590Z,6.23
2023-05-18T06:37:06.796Z,5.67
2023-05-18T06:39:36.509Z,14.07
2023-05-18T06:42:06.748Z,10.67
2023-05-18T06:44:37.254Z,7.07
2023-05-18T06:47:19.796Z,6.30
2023-05-18T06:49:51.873Z,6.47
2023-05-18T06:52:21.269Z,7.13
2023-05-18T06:54:50.255Z,9.53
2023-05-18T06:57:19.717Z,8.53
2023-05-18T06:59:53.993Z,8.43
2023-05-18T07:02:26.109Z,6.37
2023-05-18T07:04:56.735Z,6.53
2023-05-18T07:07:26.498Z,8.47
2023-05-18T07:09:55.658Z,5.53
2023-05-18T07:12:26.374Z,7.87
2023-05-18T07:14:55.490Z,11.93
2023-05-18T07:17:28.031Z,8.93
2023-05-18T07:19:58.912Z,7.93
2023-05-18T07:22:28.432Z,12.23
2023-05-18T07:24:59.082Z,11.17
2023-05-18T07:27:28.617Z,6.50
2023-05-18T07:29:57.676Z,8.47
2023-05-18T07:32:26.586Z,7.57
2023-05-18T07:34:58.354Z,8.17
2023-05-18T07:37:27.381Z,9.53
2023-05-18T07:39:56.530Z,9.57
2023-05-18T07:42:25.866Z,6.13
2023-05-18T07:44:54.614Z,5.70
2023-05-18T07:47:23.850Z,10.47
2023-05-18T07:49:52.644Z,10.17
2023-05-18T07:52:23.289Z,9.90
2023-05-18T07:54:53.150Z,7.40
2023-05-18T07:57:22.709Z,10.75
2023-05-18T07:59:52.235Z,7.50
2023-05-18T08:02:23.249Z,8.30
2023-05-18T08:04:52.461Z,9.43
2023-05-18T08:07:27.280Z,9.40
2023-05-18T08:09:58.005Z,8.43
2023-05-18T08:12:30.670Z,5.22
2023-05-18T08:14:59.939Z,11.57
2023-05-18T08:17:28.773Z,11.35
2023-05-18T08:19:57.761Z,8.27
2023-05-18T08:22:27.760Z,7.55
2023-05-18T08:24:56.881Z,7.13
2023-05-18T08:27:25.811Z,10.50
2023-05-18T08:29:55.936Z,7.13
2023-05-18T08:32:24.865Z,10.95
2023-05-18T08:34:54.850Z,5.57
2023-05-18T08:37:29.467Z,6.03
2023-05-18T08:40:01.653Z,8.30
2023-05-18T08:42:48.728Z,8.82
2023-05-18T08:45:25.627Z,10.07
2023-05-18T08:48:02.259Z,10.35
2023-05-18T08:50:36.487Z,7.55
2023-05-18T08:53:08.215Z,7.32
2023-05-18T08:55:39.818Z,8.27
2023-05-18T08:58:10.957Z,11.00
2023-05-18T09:00:40.145Z,8.27
2023-05-18T09:03:10.303Z,12.05
2023-05-18T09:05:40.304Z,8.98
2023-05-18T09:08:11.489Z,4.93
2023-05-18T09:10:42.188Z,8.98
2023-05-18T09:13:13.122Z,6.38
2023-05-18T09:15:42.572Z,9.07
2023-05-18T09:18:11.425Z,7.18
2023-05-18T09:20:40.558Z,9.98
2023-05-18T09:23:09.633Z,7.05
2023-05-18T09:25:44.983Z,8.70
2023-05-18T09:28:15.551Z,6.97
2023-05-18T09:30:45.018Z,7.50
2023-05-18T09:33:22.203Z,5.50
2023-05-18T09:35:53.208Z,7.07
2023-05-18T09:38:25.415Z,7.15
2023-05-18T09:40:55.646Z,10.50
2023-05-18T09:43:24.412Z,8.75
2023-05-18T09:45:53.170Z,5.45
2023-05-18T09:48:25.196Z,6.55
2023-05-18T09:50:56.974Z,7.75
2023-05-18T09:53:26.242Z,5.70
2023-05-18T09:55:56.700Z,6.57
2023-05-18T09:58:26.142Z,7.13
2023-05-18T10:00:57.167Z,4.35
2023-05-18T10:03:27.088Z,4.15
2023-05-18T10:05:55.797Z,7.13
2023-05-18T10:08:24.712Z,5.93
2023-05-18T10:10:53.904Z,6.85
2023-05-18T10:13:27.854Z,4.50
2023-05-18T10:15:59.396Z,10.45
2023-05-18T10:18:30.712Z,4.60
2023-05-18T10:21:01.295Z,8.60
2023-05-18T10:23:32.932Z,5.63
2023-05-18T10:26:02.242Z,3.92
2023-05-18T10:28:35.150Z,6.50
2023-05-18T10:31:05.996Z,4.65
2023-05-18T10:33:37.301Z,4.43
2023-05-18T10:36:08.087Z,2.63
2023-05-18T10:38:40.881Z,3.47
2023-05-18T10:41:11.266Z,7.40
2023-05-18T10:43:43.192Z,4.63
2023-05-18T10:46:13.050Z,7.13
2023-05-18T10:48:41.853Z,4.93
2023-05-18T10:51:10.650Z,3.95
2023-05-18T10:53:44.547Z,4.68
2023-05-18T10:56:13.715Z,3.75
2023-05-18T10:58:46.454Z,2.90
2023-05-18T11:01:15.804Z,2.53
2023-05-18T11:03:44.512Z,7.13
2023-05-18T11:06:15.238Z,2.67
2023-05-18T11:08:45.881Z,2.88
2023-05-18T11:11:17.259Z,7.20
2023-05-18T11:13:52.135Z,3.40
2023-05-18T11:16:21.486Z,3.50
2023-05-18T11:18:51.596Z,3.97
2023-05-18T11:21:42.533Z,4.28
2023-05-18T11:24:20.441Z,4.38
2023-05-18T11:26:50.717Z,5.82
2023-05-18T11:29:23.555Z,2.40
2023-05-18T11:31:54.959Z,5.35
2023-05-18T11:34:46.539Z,5.63
2023-05-18T11:37:16.894Z,5.45
2023-05-18T11:40:00.198Z,3.95
2023-05-18T11:42:35.522Z,2.67
2023-05-18T11:45:13.392Z,11.13
2023-05-18T11:47:42.478Z,3.17
2023-05-18T11:50:13.951Z,6.60
2023-05-18T11:52:50.117Z,4.13
2023-05-18T11:55:20.772Z,2.53
2023-05-18T11:57:53.804Z,6.40
2023-05-18T12:00:26.407Z,1.83
2023-05-18T12:02:59.309Z,3.17
2023-05-18T12:05:32.833Z,4.38
2023-05-18T12:08:02.205Z,3.88
2023-05-18T12:10:31.787Z,3.50
2023-05-18T12:13:02.498Z,5.22
2023-05-18T12:15:33.918Z,3.28
2023-05-18T12:18:02.913Z,4.78
2023-05-18T12:20:31.930Z,9.35
2023-05-18T12:23:01.590Z,3.13
2023-05-18T12:25:34.556Z,2.25
2023-05-18T12:28:05.081Z,2.42
2023-05-18T12:30:39.852Z,3.83
2023-05-18T12:33:09.092Z,4.72
2023-05-18T12:35:38.086Z,5.43
2023-05-18T12:38:07.706Z,2.70
2023-05-18T12:40:45.165Z,7.68
2023-05-18T12:43:14.638Z,2.60
2023-05-18T12:45:46.424Z,3.20
2023-05-18T12:48:16.440Z,2.38
2023-05-18T12:50:49.336Z,2.40
2023-05-18T12:53:18.596Z,6.35
2023-05-18T12:55:48.345Z,1.98
2023-05-18T12:58:19.381Z,4.03
2023-05-18T13:00:50.818Z,5.15
2023-05-18T13:03:22.735Z,2.92
2023-05-18T13:06:05.022Z,2.47
2023-05-18T13:08:35.242Z,6.68
2023-05-18T13:11:12.814Z,2.78
2023-05-18T13:14:00.957Z,2.00
2023-05-18T13:16:31.779Z,3.72
2023-05-18T13:19:01.731Z,2.25
2023-05-18T13:21:30.665Z,3.17
2023-05-18T13:23:59.598Z,3.70
2023-05-18T13:26:29.327Z,13.43
2023-05-18T13:29:00.324Z,2.50
2023-05-18T13:31:32.358Z,1.95
2023-05-18T13:34:04.189Z,2.83
2023-05-18T13:36:34.325Z,2.30
2023-05-18T13:39:05.779Z,4.30
2023-05-18T13:41:36.664Z,2.90
2023-05-18T13:44:06.495Z,4.05
2023-05-18T13:46:38.205Z,1.95
2023-05-18T13:49:07.111Z,7.30
2023-05-18T13:51:35.926Z,23.00
2023-05-18T13:54:04.725Z,17.33
2023-05-18T13:56:33.560Z,8.32
2023-05-18T13:59:02.412Z,5.78
2023-05-18T14:01:42.764Z,3.55
2023-05-18T14:04:13.252Z,5.25
2023-05-18T14:06:42.252Z,3.10
2023-05-18T14:09:10.956Z,3.22
2023-05-18T14:11:40.971Z,6.95
2023-05-18T14:14:09.665Z,3.63
2023-05-18T14:16:38.346Z,5.00
2023-05-18T14:19:07.058Z,5.38
2023-05-18T14:21:37.214Z,3.08
2023-05-18T14:24:07.931Z,2.65
2023-05-18T14:26:36.725Z,2.67
2023-05-18T14:29:05.583Z,3.78
2023-05-18T14:31:35.647Z,10.40
2023-05-18T14:34:04.410Z,2.85
2023-05-18T14:36:33.385Z,5.13
2023-05-18T14:39:04.813Z,5.10
2023-05-18T14:41:34.009Z,4.25
2023-05-18T14:44:03.966Z,4.72
2023-05-18T14:46:34.019Z,10.65
2023-05-18T14:49:03.445Z,4.43
2023-05-18T14:51:32.182Z,4.15
2023-05-18T14:54:00.822Z,2.97
2023-05-18T14:56:31.021Z,5.55
2023-05-18T14:58:59.696Z,6.32
2023-05-18T15:01:28.444Z,5.20
2023-05-18T15:03:57.610Z,7.18
2023-05-18T15:06:27.192Z,2.47
2023-05-18T15:08:56.428Z,8.65
2023-05-18T15:11:27.328Z,3.70
2023-05-18T15:13:58.029Z,4.22
2023-05-18T15:16:27.520Z,4.30
2023-05-18T15:18:57.059Z,3.13
2023-05-18T15:21:25.962Z,2.80
2023-05-18T15:23:55.045Z,7.75
2023-05-18T15:26:24.292Z,3.20
2023-05-18T15:28:53.121Z,7.07
2023-05-18T15:31:27.211Z,5.38
2023-05-18T15:33:56.516Z,3.45
2023-05-18T15:36:26.286Z,4.47
2023-05-18T15:38:56.243Z,2.95
2023-05-18T15:41:29.885Z,4.75
2023-05-18T15:43:59.409Z,2.42
2023-05-18T15:46:32.229Z,5.38
2023-05-18T15:49:01.800Z,3.92
2023-05-18T15:51:32.876Z,5.95
2023-05-18T15:54:04.059Z,3.53
2023-05-18T15:56:32.909Z,4.35
2023-05-18T15:59:02.298Z,3.63
2023-05-18T16:01:32.659Z,5.00
2023-05-18T16:04:01.735Z,5.53
2023-05-18T16:06:31.411Z,2.90
2023-05-18T16:09:00.293Z,2.95
2023-05-18T16:11:29.653Z,5.85
2023-05-18T16:14:06.548Z,4.82
2023-05-18T16:16:37.052Z,4.80
2023-05-18T16:19:08.066Z,3.15
2023-05-18T16:21:37.324Z,7.43
2023-05-18T16:24:07.320Z,4.05
2023-05-18T16:26:37.944Z,2.97
2023-05-18T16:29:09.149Z,4.22
2023-05-18T16:31:40.059Z,3.65
2023-05-18T16:34:09.603Z,2.63
2023-05-18T16:36:38.563Z,10.88
2023-05-18T16:39:08.131Z,3.25
2023-05-18T16:41:37.773Z,3.72
2023-05-18T16:44:08.781Z,2.58
2023-05-18T16:46:39.748Z,2.10
2023-05-18T16:49:09.307Z,3.78
2023-05-18T16:51:38.419Z,3.30
2023-05-18T16:54:07.932Z,3.15
2023-05-18T16:56:36.777Z,3.08
2023-05-18T16:59:05.714Z,4.18
2023-05-18T17:01:35.121Z,2.85
2023-05-18T17:04:07.583Z,2.40
2023-05-18T17:06:37.107Z,3.80
2023-05-18T17:09:06.658Z,3.15
2023-05-18T17:11:36.267Z,5.53
2023-05-18T17:14:06.535Z,3.53
2023-05-18T17:16:40.655Z,2.20
2023-05-18T17:19:11.563Z,1.73
2023-05-18T17:21:41.767Z,4.28
2023-05-18T17:24:11.148Z,4.22
2023-05-18T17:26:40.195Z,6.57
2023-05-18T17:29:09.128Z,3.15
2023-05-18T17:31:38.236Z,2.65
2023-05-18T17:34:06.964Z,1.57
2023-05-18T17:36:37.045Z,3.90
2023-05-18T17:39:07.263Z,2.70
2023-05-18T17:41:36.754Z,5.82
2023-05-18T17:44:07.324Z,6.95
2023-05-18T17:46:37.213Z,4.40
2023-05-18T17:49:06.884Z,5.30
2023-05-18T17:51:37.550Z,3.43
2023-05-18T17:54:07.467Z,1.40
2023-05-18T17:56:37.068Z,3.25
2023-05-18T17:59:06.839Z,4.03
2023-05-18T18:01:36.394Z,3.07
2023-05-18T18:04:06.130Z,3.90
2023-05-18T18:06:37.446Z,7.27
2023-05-18T18:09:09.796Z,5.20
2023-05-18T18:11:39.151Z,5.37
2023-05-18T18:14:08.842Z,6.37
2023-05-18T18:16:38.452Z,5.93
2023-05-18T18:19:09.166Z,4.70
2023-05-18T18:21:39.690Z,3.17
2023-05-18T18:24:09.131Z,4.50
2023-05-18T18:26:40.954Z,2.27
2023-05-18T18:29:10.681Z,3.70
2023-05-18T18:31:41.990Z,4.83
2023-05-18T18:34:12.076Z,2.43
2023-05-18T18:36:43.218Z,4.63
2023-05-18T18:39:13.158Z,4.40
2023-05-18T18:41:43.023Z,3.73
2023-05-18T18:44:12.674Z,2.50
2023-05-18T18:46:42.290Z,4.00
2023-05-18T18:49:11.891Z,4.17
2023-05-18T18:51:43.153Z,2.80
2023-05-18T18:54:12.782Z,5.47
2023-05-18T18:56:44.528Z,2.40
2023-05-18T18:59:14.019Z,6.63
2023-05-18T19:01:42.939Z,2.03
2023-05-18T19:04:14.198Z,2.17
2023-05-18T19:06:45.284Z,5.77
2023-05-18T19:09:15.197Z,2.23
2023-05-18T19:11:49.355Z,5.40
2023-05-18T19:14:21.786Z,3.10
2023-05-18T19:16:51.110Z,4.50
2023-05-18T19:19:20.821Z,3.90
2023-05-18T19:21:52.369Z,6.60
2023-05-18T19:24:21.858Z,3.77
2023-05-18T19:26:51.157Z,4.83
2023-05-18T19:29:20.540Z,5.27
2023-05-18T19:31:49.628Z,4.67
2023-05-18T19:34:19.267Z,5.23
2023-05-18T19:36:48.710Z,6.10
2023-05-18T19:39:22.992Z,4.00
2023-05-18T19:41:53.383Z,3.83
2023-05-18T19:44:23.836Z,5.40
2023-05-18T19:46:53.143Z,5.43
2023-05-18T19:49:22.474Z,6.60
2023-05-18T19:51:51.966Z,3.67
2023-05-18T19:54:23.316Z,4.53
2023-05-18T19:56:53.327Z,5.07
2023-05-18T19:59:23.058Z,3.57
2023-05-18T20:01:56.761Z,6.00
2023-05-18T20:04:28.866Z,6.37
2023-05-18T20:06:58.774Z,3.57
2023-05-18T20:09:29.954Z,5.93
2023-05-18T20:11:59.798Z,6.20
2023-05-18T20:14:30.965Z,8.30
2023-05-18T20:17:01.057Z,3.77
2023-05-18T20:19:30.683Z,4.73
2023-05-18T20:21:59.914Z,5.23
2023-05-18T20:24:32.783Z,7.03
2023-05-18T20:27:02.873Z,4.07
2023-05-18T20:29:32.334Z,4.20
2023-05-18T20:32:03.385Z,5.93
2023-05-18T20:34:37.361Z,6.93
2023-05-18T20:37:10.485Z,8.50
2023-05-18T20:39:51.052Z,8.53
2023-05-18T20:42:25.085Z,8.13
2023-05-18T20:44:56.665Z,10.30
2023-05-18T20:47:25.731Z,8.53
2023-05-18T20:49:54.891Z,7.03
2023-05-18T20:52:24.185Z,6.90
2023-05-18T20:54:55.232Z,9.10
2023-05-18T20:57:28.840Z,5.13
2023-05-18T20:59:57.952Z,9.73
2023-05-18T21:02:27.730Z,6.20
2023-05-18T21:04:58.495Z,9.77
2023-05-18T21:07:28.326Z,6.87
2023-05-18T21:10:03.533Z,8.37
2023-05-18T21:12:36.979Z,8.13
2023-05-18T21:15:07.275Z,12.73
2023-05-18T21:17:36.621Z,17.67
2023-05-18T21:20:07.726Z,7.30
2023-05-18T21:22:37.477Z,6.97
2023-05-18T21:25:10.339Z,8.83
2023-05-18T21:27:41.357Z,8.17
2023-05-18T21:30:13.074Z,5.10
2023-05-18T21:32:51.283Z,6.57
2023-05-18T21:35:21.613Z,8.10
2023-05-18T21:37:51.348Z,4.40
2023-05-18T21:40:23.222Z,7.37
2023-05-18T21:42:52.276Z,5.27
2023-05-18T21:45:23.174Z,5.37
2023-05-18T21:47:52.551Z,7.73
2023-05-18T21:50:22.937Z,6.30
2023-05-18T21:52:52.481Z,6.73
2023-05-18T21:55:23.484Z,4.90
2023-05-18T21:57:52.780Z,7.87
2023-05-18T22:00:22.571Z,4.93
2023-05-18T22:02:52.561Z,6.23
2023-05-18T22:05:22.063Z,5.67
2023-05-18T22:07:52.596Z,5.57
2023-05-18T22:10:24.013Z,3.50
2023-05-18T22:12:54.747Z,4.03
2023-05-18T22:15:27.262Z,4.83
2023-05-18T22:17:57.785Z,4.23
2023-05-18T22:20:27.434Z,5.97
2023-05-18T22:22:56.988Z,5.53
2023-05-18T22:25:27.830Z,8.43
2023-05-18T22:27:57.091Z,8.03
2023-05-18T22:30:28.065Z,7.50
2023-05-18T22:32:58.782Z,7.13
2023-05-18T22:35:27.843Z,8.70
2023-05-18T22:37:57.164Z,5.10
2023-05-18T22:40:30.278Z,8.53
2023-05-18T22:42:59.448Z,6.53
2023-05-18T22:45:28.328Z,6.10
2023-05-18T22:47:57.375Z,13.20
2023-05-18T22:50:27.770Z,5.90
2023-05-18T22:52:57.512Z,9.20
2023-05-18T22:55:27.941Z,10.00
2023-05-18T22:57:57.456Z,8.23
2023-05-18T23:00:27.892Z,9.90
2023-05-18T23:02:57.387Z,8.90
2023-05-18T23:05:27.217Z,7.90
2023-05-18T23:07:58.429Z,9.07
2023-05-18T23:10:29.674Z,9.83
2023-05-18T23:12:59.683Z,7.10
2023-05-18T23:15:29.056Z,7.10
2023-05-18T23:17:58.420Z,7.53
2023-05-18T23:20:28.179Z,7.80
2023-05-18T23:22:57.096Z,5.80
2023-05-18T23:25:26.273Z,8.93
2023-05-18T23:27:56.868Z,7.77
2023-05-18T23:30:26.424Z,8.00
2023-05-18T23:32:57.007Z,8.23
2023-05-18T23:35:27.525Z,10.77
2023-05-18T23:37:58.898Z,8.77
2023-05-18T23:40:29.712Z,8.90
2023-05-18T23:43:01.832Z,10.73
2023-05-18T23:45:31.384Z,7.03
2023-05-18T23:48:01.243Z,9.77
2023-05-18T23:50:31.103Z,9.43
2023-05-18T23:53:05.226Z,7.63
2023-05-18T23:55:36.888Z,10.50
2023-05-18T23:58:07.558Z,11.13
